createdAt,value
2022-08-08T00:01:52.402Z,18.56
2022-08-08T00:04:30.103Z,18.51
2022-08-08T00:07:28.578Z,18.45
2022-08-08T00:10:01.113Z,18.44
2022-08-08T00:12:33.481Z,18.36
2022-08-08T00:15:17.704Z,18.29
2022-08-08T00:18:03.703Z,18.26
2022-08-08T00:20:51.730Z,18.20
2022-08-08T00:23:42.874Z,18.18
2022-08-08T00:26:14.757Z,18.15
2022-08-08T00:28:53.042Z,18.11
2022-08-08T00:32:15.238Z,18.05
2022-08-08T00:35:08.898Z,18.03
2022-08-08T00:38:30.967Z,17.99
2022-08-08T00:41:10.148Z,18.02
2022-08-08T00:44:18.026Z,17.96
2022-08-08T00:46:58.805Z,18.02
2022-08-08T00:49:37.183Z,18.01
2022-08-08T00:52:19.614Z,17.97
2022-08-08T00:55:06.993Z,18.02
2022-08-08T00:58:12.650Z,17.99
2022-08-08T01:01:10.005Z,17.99
2022-08-08T01:04:04.770Z,17.97
2022-08-08T01:06:47.585Z,18.03
2022-08-08T01:09:41.302Z,18.03
2022-08-08T01:12:07.968Z,18.06
2022-08-08T01:15:17.250Z,18.09
2022-08-08T01:18:16.085Z,18.10
2022-08-08T01:21:07.406Z,18.12
2022-08-08T01:24:16.695Z,18.12
2022-08-08T01:27:07.084Z,18.16
2022-08-08T01:29:59.144Z,18.13
2022-08-08T01:32:59.492Z,18.13
2022-08-08T01:35:38.461Z,18.11
2022-08-08T01:38:44.543Z,18.10
2022-08-08T01:41:34.200Z,18.13
2022-08-08T01:44:31.067Z,18.10
2022-08-08T01:48:14.277Z,18.05
2022-08-08T01:50:48.989Z,18.03
2022-08-08T01:54:33.372Z,17.99
2022-08-08T01:56:46.801Z,17.96
2022-08-08T02:00:01.892Z,17.90
2022-08-08T02:02:34.127Z,17.89
2022-08-08T02:05:56.320Z,17.80
2022-08-08T02:08:47.306Z,17.77
2022-08-08T02:11:23.551Z,17.77
2022-08-08T02:14:21.012Z,17.70
2022-08-08T02:17:10.583Z,17.65
2022-08-08T02:20:08.211Z,17.60
2022-08-08T02:22:58.272Z,17.53
2022-08-08T02:25:32.912Z,17.52
2022-08-08T02:28:26.097Z,17.45
2022-08-08T02:31:59.505Z,17.38
2022-08-08T02:35:08.164Z,17.36
2022-08-08T02:38:09.338Z,17.29
2022-08-08T02:40:56.119Z,17.29
2022-08-08T02:44:37.667Z,17.26
2022-08-08T02:46:59.210Z,17.32
2022-08-08T02:49:48.343Z,17.31
2022-08-08T02:52:50.912Z,17.29
2022-08-08T02:55:23.449Z,17.32
2022-08-08T02:58:30.824Z,17.31
2022-08-08T03:01:39.873Z,17.37
2022-08-08T03:05:03.590Z,17.41
2022-08-08T03:07:57.669Z,17.50
2022-08-08T03:11:05.061Z,17.49
2022-08-08T03:16:02.468Z,17.55
2022-08-08T03:16:48.329Z,17.54
2022-08-08T03:19:50.511Z,17.56
2022-08-08T03:22:38.607Z,17.63
2022-08-08T03:25:14.448Z,17.63
2022-08-08T03:27:49.526Z,17.64
2022-08-08T03:30:23.705Z,17.64
2022-08-08T03:33:56.875Z,17.62
2022-08-08T03:35:57.010Z,17.63
2022-08-08T03:38:55.896Z,17.62
2022-08-08T03:42:12.229Z,17.63
2022-08-08T03:43:59.645Z,17.61
2022-08-08T03:46:32.425Z,17.61
2022-08-08T03:49:15.294Z,17.61
2022-08-08T03:51:55.446Z,17.59
2022-08-08T03:54:41.188Z,17.58
2022-08-08T03:58:34.565Z,17.56
2022-08-08T04:00:11.697Z,17.57
2022-08-08T04:02:47.262Z,17.57
2022-08-08T04:05:19.545Z,17.57
2022-08-08T04:07:54.279Z,17.58
2022-08-08T04:10:20.865Z,17.59
2022-08-08T04:12:49.808Z,17.60
2022-08-08T04:15:16.639Z,17.62
2022-08-08T04:17:58.451Z,17.62
2022-08-08T04:20:28.682Z,17.64
2022-08-08T04:22:57.130Z,17.64
2022-08-08T04:25:29.871Z,17.64
2022-08-08T04:28:35.523Z,17.65
2022-08-08T04:30:45.541Z,17.66
2022-08-08T04:33:15.614Z,17.66
2022-08-08T04:35:43.895Z,17.66
2022-08-08T04:38:21.353Z,17.64
2022-08-08T04:40:51.780Z,17.66
2022-08-08T04:43:22.112Z,17.66
2022-08-08T04:45:50.174Z,17.66
2022-08-08T04:48:17.476Z,17.67
2022-08-08T04:50:48.900Z,17.67
2022-08-08T04:53:51.992Z,17.65
2022-08-08T04:56:04.130Z,17.65
2022-08-08T04:58:31.153Z,17.65
2022-08-08T05:00:59.869Z,17.67
2022-08-08T05:04:11.202Z,17.67
2022-08-08T05:06:25.556Z,17.68
2022-08-08T05:08:55.881Z,17.68
2022-08-08T05:11:26.255Z,17.66
2022-08-08T05:13:57.516Z,17.67
2022-08-08T05:16:52.825Z,17.66
2022-08-08T05:20:12.227Z,17.68
2022-08-08T05:22:06.955Z,17.67
2022-08-08T05:24:34.185Z,17.67
2022-08-08T05:27:04.354Z,17.67
2022-08-08T05:29:30.861Z,17.68
2022-08-08T05:32:03.506Z,17.70
2022-08-08T05:34:47.699Z,17.68
2022-08-08T05:37:39.084Z,17.72
2022-08-08T05:40:11.242Z,17.79
2022-08-08T05:42:44.496Z,17.82
2022-08-08T05:45:25.465Z,17.86
2022-08-08T05:48:00.770Z,17.90
2022-08-08T05:50:30.150Z,17.93
2022-08-08T05:53:54.577Z,17.98
2022-08-08T05:56:10.179Z,18.03
2022-08-08T05:58:57.842Z,18.08
2022-08-08T06:01:56.400Z,18.18
2022-08-08T06:04:23.397Z,18.24
2022-08-08T06:07:00.278Z,18.29
2022-08-08T06:09:58.230Z,18.36
2022-08-08T06:12:30.149Z,18.46
2022-08-08T06:15:03.078Z,18.53
2022-08-08T06:17:51.167Z,18.61
2022-08-08T06:20:20.772Z,18.70
2022-08-08T06:22:49.444Z,18.78
2022-08-08T06:25:18.152Z,18.85
2022-08-08T06:27:50.473Z,18.91
2022-08-08T06:30:20.403Z,18.99
2022-08-08T06:32:58.181Z,19.07
2022-08-08T06:36:07.431Z,19.13
2022-08-08T06:38:21.631Z,19.21
2022-08-08T06:41:03.092Z,19.28
2022-08-08T06:43:34.796Z,19.34
2022-08-08T06:46:04.600Z,19.40
2022-08-08T06:48:36.313Z,19.47
2022-08-08T06:51:07.722Z,19.52
2022-08-08T06:53:39.242Z,19.57
2022-08-08T06:56:07.175Z,19.63
2022-08-08T06:58:34.126Z,19.68
2022-08-08T07:01:11.690Z,19.73
2022-08-08T07:04:39.557Z,19.76
2022-08-08T07:07:12.091Z,19.81
2022-08-08T07:09:59.224Z,19.88
2022-08-08T07:12:47.566Z,19.92
2022-08-08T07:15:32.451Z,20.01
2022-08-08T07:18:37.147Z,20.05
2022-08-08T07:21:02.190Z,20.11
2022-08-08T07:24:05.241Z,20.13
2022-08-08T07:26:35.570Z,20.22
2022-08-08T07:29:05.623Z,20.26
2022-08-08T07:31:35.876Z,20.30
2022-08-08T07:34:08.828Z,20.34
2022-08-08T07:36:37.201Z,20.36
2022-08-08T07:39:10.760Z,20.49
2022-08-08T07:41:58.636Z,20.51
2022-08-08T07:44:37.421Z,20.55
2022-08-08T07:47:07.302Z,20.60
2022-08-08T07:49:34.027Z,20.64
2022-08-08T07:52:02.715Z,20.69
2022-08-08T07:54:42.085Z,20.73
2022-08-08T07:57:28.435Z,20.78
2022-08-08T08:00:16.242Z,20.90
2022-08-08T08:02:47.983Z,20.96
2022-08-08T08:05:26.427Z,21.02
2022-08-08T08:08:07.118Z,21.08
2022-08-08T08:10:35.942Z,21.17
2022-08-08T08:13:25.128Z,21.23
2022-08-08T08:16:06.049Z,21.30
2022-08-08T08:18:51.678Z,21.41
2022-08-08T08:21:35.536Z,21.53
2022-08-08T08:24:19.917Z,21.64
2022-08-08T08:26:54.767Z,21.74
2022-08-08T08:29:22.161Z,21.81
2022-08-08T08:31:54.117Z,21.90
2022-08-08T08:34:24.931Z,21.99
2022-08-08T08:36:59.611Z,22.10
2022-08-08T08:40:00.547Z,22.19
2022-08-08T08:42:14.818Z,22.30
2022-08-08T08:44:57.330Z,22.41
2022-08-08T08:47:26.253Z,22.49
2022-08-08T08:49:52.789Z,22.59
2022-08-08T08:52:22.231Z,22.68
2022-08-08T08:54:59.902Z,22.79
2022-08-08T08:57:29.261Z,22.93
2022-08-08T09:00:01.698Z,23.04
2022-08-08T09:02:35.109Z,23.15
2022-08-08T09:05:06.090Z,23.27
2022-08-08T09:07:39.691Z,23.37
2022-08-08T09:10:23.688Z,23.48
2022-08-08T09:12:56.524Z,23.59
2022-08-08T09:15:40.879Z,23.67
2022-08-08T09:18:09.413Z,23.78
2022-08-08T09:22:02.959Z,23.87
2022-08-08T09:23:33.313Z,23.96
2022-08-08T09:26:23.471Z,24.02
2022-08-08T09:28:57.805Z,24.17
2022-08-08T09:31:55.914Z,24.25
2022-08-08T09:34:32.516Z,24.40
2022-08-08T09:37:57.138Z,24.47
2022-08-08T09:40:10.503Z,24.57
2022-08-08T09:42:44.171Z,24.67
2022-08-08T09:46:02.201Z,24.75
2022-08-08T09:48:21.858Z,24.90
2022-08-08T09:50:56.876Z,25.01
2022-08-08T09:53:56.515Z,25.12
2022-08-08T09:56:24.895Z,25.26
2022-08-08T09:58:57.701Z,25.35
2022-08-08T10:01:59.470Z,25.43
2022-08-08T10:04:35.641Z,25.51
2022-08-08T10:07:07.602Z,25.56
2022-08-08T10:10:00.989Z,25.61
2022-08-08T10:12:38.012Z,25.67
2022-08-08T10:15:17.528Z,25.74
2022-08-08T10:18:06.662Z,25.78
2022-08-08T10:20:51.289Z,25.78
2022-08-08T10:23:42.019Z,25.83
2022-08-08T10:26:30.396Z,25.93
2022-08-08T10:29:03.199Z,26.04
2022-08-08T10:31:49.570Z,26.15
2022-08-08T10:34:21.088Z,26.27
2022-08-08T10:36:48.940Z,26.38
2022-08-08T10:39:43.021Z,26.48
2022-08-08T10:42:19.075Z,26.64
2022-08-08T10:44:49.479Z,26.77
2022-08-08T10:47:20.610Z,26.88
2022-08-08T10:50:02.172Z,27.00
2022-08-08T10:52:33.729Z,27.21
2022-08-08T10:55:07.724Z,27.39
2022-08-08T10:57:50.208Z,27.67
2022-08-08T11:00:27.293Z,28.01
2022-08-08T11:02:55.233Z,28.46
2022-08-08T11:05:22.974Z,28.96
2022-08-08T11:08:36.927Z,29.53
2022-08-08T11:10:37.825Z,30.25
2022-08-08T11:13:29.633Z,30.88
2022-08-08T11:15:52.318Z,31.54
2022-08-08T11:18:30.489Z,31.93
2022-08-08T11:21:00.963Z,32.11
2022-08-08T11:23:36.744Z,32.19
2022-08-08T11:26:05.375Z,32.19
2022-08-08T11:28:38.844Z,32.02
2022-08-08T11:31:09.537Z,31.80
2022-08-08T11:33:51.726Z,31.46
2022-08-08T11:36:28.911Z,31.13
2022-08-08T11:38:56.396Z,30.98
2022-08-08T11:41:32.111Z,31.03
2022-08-08T11:44:01.339Z,31.34
2022-08-08T11:46:30.607Z,31.75
2022-08-08T11:49:00.163Z,32.25
2022-08-08T11:51:39.257Z,32.80
2022-08-08T11:54:26.892Z,33.41
2022-08-08T11:56:56.139Z,33.97
2022-08-08T11:59:57.782Z,34.31
2022-08-08T12:02:33.000Z,34.50
2022-08-08T12:05:04.850Z,34.38
2022-08-08T12:07:53.533Z,34.03
2022-08-08T12:10:22.103Z,33.76
2022-08-08T12:12:51.866Z,33.36
2022-08-08T12:15:28.183Z,32.98
2022-08-08T12:17:54.911Z,32.67
2022-08-08T12:20:21.567Z,32.36
2022-08-08T12:22:53.541Z,32.28
2022-08-08T12:25:29.731Z,32.41
2022-08-08T12:28:15.318Z,32.75
2022-08-08T12:30:48.015Z,33.19
2022-08-08T12:33:37.593Z,33.47
2022-08-08T12:36:16.379Z,33.64
2022-08-08T12:38:51.223Z,33.56
2022-08-08T12:41:33.933Z,33.39
2022-08-08T12:44:10.912Z,33.08
2022-08-08T12:46:37.660Z,32.75
2022-08-08T12:49:25.124Z,32.37
2022-08-08T12:51:58.457Z,32.03
2022-08-08T12:54:36.763Z,31.71
2022-08-08T12:57:38.354Z,31.35
2022-08-08T13:00:33.818Z,31.08
2022-08-08T13:03:05.706Z,30.87
2022-08-08T13:06:02.215Z,30.65
2022-08-08T13:08:21.953Z,30.44
2022-08-08T13:10:56.586Z,30.25
2022-08-08T13:13:35.172Z,30.09
2022-08-08T13:16:20.980Z,29.94
2022-08-08T13:18:58.357Z,29.87
2022-08-08T13:21:48.851Z,29.74
2022-08-08T13:24:18.697Z,29.64
2022-08-08T13:27:05.244Z,29.56
2022-08-08T13:29:54.454Z,29.41
2022-08-08T13:32:23.788Z,29.35
2022-08-08T13:34:55.411Z,29.27
2022-08-08T13:37:52.251Z,29.22
2022-08-08T13:40:10.732Z,29.18
2022-08-08T13:42:37.762Z,29.13
2022-08-08T13:45:05.875Z,29.13
2022-08-08T13:47:38.507Z,29.17
2022-08-08T13:50:35.882Z,29.22
2022-08-08T13:52:56.427Z,29.36
2022-08-08T13:55:36.274Z,29.68
2022-08-08T13:58:08.365Z,30.23
2022-08-08T14:00:45.483Z,30.98
2022-08-08T14:03:53.880Z,31.77
2022-08-08T14:06:20.506Z,32.71
2022-08-08T14:08:57.904Z,33.53
2022-08-08T14:11:27.939Z,34.02
2022-08-08T14:13:59.470Z,34.30
2022-08-08T14:16:27.839Z,34.38
2022-08-08T14:19:01.002Z,34.38
2022-08-08T14:21:51.924Z,34.40
2022-08-08T14:24:33.673Z,34.62
2022-08-08T14:27:01.714Z,34.94
2022-08-08T14:29:30.436Z,35.25
2022-08-08T14:32:09.037Z,35.57
2022-08-08T14:34:42.145Z,35.92
2022-08-08T14:37:13.108Z,36.22
2022-08-08T14:39:49.802Z,36.50
2022-08-08T14:42:25.119Z,36.79
2022-08-08T14:45:01.051Z,37.07
2022-08-08T14:47:30.328Z,37.39
2022-08-08T14:50:21.453Z,37.71
2022-08-08T14:53:09.746Z,37.98
2022-08-08T14:55:42.334Z,38.05
2022-08-08T14:58:16.114Z,37.90
2022-08-08T15:00:44.936Z,37.69
2022-08-08T15:03:14.532Z,37.60
2022-08-08T15:05:52.346Z,37.64
2022-08-08T15:08:35.484Z,37.80
2022-08-08T15:11:06.741Z,38.01
2022-08-08T15:13:35.194Z,38.24
2022-08-08T15:16:12.242Z,38.46
2022-08-08T15:18:50.081Z,38.70
2022-08-08T15:21:18.682Z,38.93
2022-08-08T15:23:51.551Z,39.10
2022-08-08T15:26:21.515Z,39.25
2022-08-08T15:28:53.050Z,39.38
2022-08-08T15:31:55.651Z,39.51
2022-08-08T15:34:08.423Z,39.64
2022-08-08T15:36:35.489Z,39.76
2022-08-08T15:39:04.234Z,39.86
2022-08-08T15:41:43.601Z,39.94
2022-08-08T15:44:13.340Z,40.01
2022-08-08T15:46:45.576Z,40.02
2022-08-08T15:49:20.655Z,39.97
2022-08-08T15:51:54.691Z,39.74
2022-08-08T15:54:38.866Z,39.35
2022-08-08T15:57:08.929Z,38.78
2022-08-08T16:00:05.623Z,38.22
2022-08-08T16:02:31.049Z,37.55
2022-08-08T16:05:00.571Z,36.88
2022-08-08T16:07:39.428Z,36.25
2022-08-08T16:13:04.329Z,35.68
2022-08-08T16:13:31.932Z,35.33
2022-08-08T16:15:58.083Z,35.19
2022-08-08T16:18:35.827Z,35.24
2022-08-08T16:21:03.044Z,35.33
2022-08-08T16:23:32.913Z,35.51
2022-08-08T16:26:12.840Z,35.66
2022-08-08T16:28:44.300Z,35.74
2022-08-08T16:31:12.370Z,35.65
2022-08-08T16:33:40.156Z,35.39
2022-08-08T16:36:09.852Z,34.98
2022-08-08T16:38:44.544Z,34.47
2022-08-08T16:41:18.503Z,33.92
2022-08-08T16:43:50.862Z,33.36
2022-08-08T16:46:37.692Z,32.85
2022-08-08T16:49:08.782Z,32.29
2022-08-08T16:55:18.393Z,31.36
2022-08-08T16:55:20.745Z,31.82
2022-08-08T16:57:22.781Z,30.93
2022-08-08T16:59:51.904Z,30.57
2022-08-08T17:02:32.628Z,30.25
2022-08-08T17:05:08.040Z,29.93
2022-08-08T17:07:37.862Z,29.65
2022-08-08T17:10:11.525Z,29.41
2022-08-08T17:12:39.035Z,29.19
2022-08-08T17:15:17.805Z,28.96
2022-08-08T17:18:03.620Z,28.74
2022-08-08T17:20:40.227Z,28.48
2022-08-08T17:23:17.546Z,28.34
2022-08-08T17:25:55.000Z,28.17
2022-08-08T17:28:34.942Z,28.03
2022-08-08T17:31:39.585Z,27.88
2022-08-08T17:34:47.920Z,27.74
2022-08-08T17:37:01.078Z,27.63
2022-08-08T17:40:04.101Z,27.54
2022-08-08T17:42:12.432Z,27.45
2022-08-08T17:44:39.789Z,27.38
2022-08-08T17:47:11.015Z,27.32
2022-08-08T17:49:43.474Z,27.28
2022-08-08T17:52:10.690Z,27.23
2022-08-08T17:54:37.517Z,27.19
2022-08-08T17:57:05.742Z,27.14
2022-08-08T17:59:36.527Z,27.09
2022-08-08T18:02:16.343Z,27.03
2022-08-08T18:04:48.607Z,26.96
2022-08-08T18:08:03.575Z,26.90
2022-08-08T18:10:05.235Z,26.84
2022-08-08T18:12:31.803Z,26.77
2022-08-08T18:14:58.700Z,26.71
2022-08-08T18:17:28.428Z,26.66
2022-08-08T18:20:43.316Z,26.60
2022-08-08T18:22:59.948Z,26.51
2022-08-08T18:25:26.497Z,26.44
2022-08-08T18:28:03.995Z,26.36
2022-08-08T18:30:30.537Z,26.29
2022-08-08T18:32:59.776Z,26.21
2022-08-08T18:35:30.678Z,26.14
2022-08-08T18:38:16.902Z,26.06
2022-08-08T18:40:45.843Z,25.97
2022-08-08T18:43:16.047Z,25.90
2022-08-08T18:46:00.334Z,25.81
2022-08-08T18:48:30.876Z,25.70
2022-08-08T18:50:58.741Z,25.61
2022-08-08T18:54:02.913Z,25.52
2022-08-08T18:56:29.281Z,25.37
2022-08-08T18:58:55.818Z,25.34
2022-08-08T19:02:25.346Z,25.24
2022-08-08T19:04:12.607Z,25.15
2022-08-08T19:06:39.801Z,25.02
2022-08-08T19:09:13.011Z,24.93
2022-08-08T19:11:40.311Z,24.81
2022-08-08T19:14:12.913Z,24.71
2022-08-08T19:16:41.242Z,24.62
2022-08-08T19:19:13.865Z,24.51
2022-08-08T19:21:49.501Z,24.40
2022-08-08T19:24:18.507Z,24.30
2022-08-08T19:27:06.630Z,24.19
2022-08-08T19:29:35.775Z,24.10
2022-08-08T19:32:09.241Z,24.01
2022-08-08T19:34:41.501Z,23.93
2022-08-08T19:37:15.951Z,23.86
2022-08-08T19:39:43.479Z,23.78
2022-08-08T19:42:13.524Z,23.71
2022-08-08T19:44:46.404Z,23.64
2022-08-08T19:47:24.877Z,23.59
2022-08-08T19:50:00.545Z,23.55
2022-08-08T19:52:35.126Z,23.53
2022-08-08T19:55:12.942Z,23.46
2022-08-08T19:57:43.208Z,23.45
2022-08-08T20:00:30.067Z,23.41
2022-08-08T20:02:59.447Z,23.38
2022-08-08T20:06:14.323Z,23.35
2022-08-08T20:08:30.992Z,23.34
2022-08-08T20:10:59.911Z,23.33
2022-08-08T20:14:12.410Z,23.32
2022-08-08T20:16:13.324Z,23.30
2022-08-08T20:18:52.467Z,23.27
2022-08-08T20:21:23.230Z,23.24
2022-08-08T20:23:54.225Z,23.21
2022-08-08T20:26:29.927Z,23.16
2022-08-08T20:28:59.103Z,23.16
2022-08-08T20:31:47.095Z,23.11
2022-08-08T20:34:28.765Z,23.01
2022-08-08T20:37:02.491Z,22.94
2022-08-08T20:39:39.441Z,22.88
2022-08-08T20:42:28.169Z,22.82
2022-08-08T20:44:57.257Z,22.77
2022-08-08T20:47:25.400Z,22.74
2022-08-08T20:49:57.484Z,22.70
2022-08-08T20:52:26.498Z,22.65
2022-08-08T20:54:53.268Z,22.62
2022-08-08T20:57:21.107Z,22.56
2022-08-08T20:59:48.081Z,22.48
2022-08-08T21:02:19.995Z,22.41
2022-08-08T21:04:53.088Z,22.34
2022-08-08T21:07:47.647Z,22.28
2022-08-08T21:10:13.051Z,22.18
2022-08-08T21:12:41.416Z,22.12
2022-08-08T21:15:12.006Z,22.04
2022-08-08T21:17:45.133Z,21.97
2022-08-08T21:20:22.639Z,21.91
2022-08-08T21:23:02.314Z,21.81
2022-08-08T21:25:29.277Z,21.73
2022-08-08T21:28:09.350Z,21.67
2022-08-08T21:30:45.366Z,21.60
2022-08-08T21:33:16.541Z,21.55
2022-08-08T21:36:16.280Z,21.49
2022-08-08T21:38:30.005Z,21.43
2022-08-08T21:40:57.886Z,21.39
2022-08-08T21:43:33.803Z,21.35
2022-08-08T21:48:12.845Z,21.31
2022-08-08T21:48:52.031Z,21.28
2022-08-08T21:51:46.019Z,21.24
2022-08-08T21:54:34.361Z,21.20
2022-08-08T21:56:54.502Z,21.17
2022-08-08T21:59:21.243Z,21.14
2022-08-08T22:01:52.295Z,21.09
2022-08-08T22:04:24.795Z,21.07
2022-08-08T22:06:52.480Z,21.05
2022-08-08T22:09:19.421Z,21.05
2022-08-08T22:11:56.552Z,21.03
2022-08-08T22:14:29.790Z,21.04
2022-08-08T22:16:56.514Z,21.01
2022-08-08T22:19:29.514Z,20.99
2022-08-08T22:21:56.696Z,20.95
2022-08-08T22:24:28.126Z,20.92
2022-08-08T22:27:02.658Z,20.90
2022-08-08T22:29:59.169Z,20.89
2022-08-08T22:32:19.084Z,20.86
2022-08-08T22:34:51.173Z,20.80
2022-08-08T22:37:27.891Z,20.75
2022-08-08T22:40:11.918Z,20.69
2022-08-08T22:42:47.115Z,20.68
2022-08-08T22:45:15.526Z,20.64
2022-08-08T22:47:49.082Z,20.60
2022-08-08T22:50:25.267Z,20.56
2022-08-08T22:53:22.438Z,20.51
2022-08-08T22:55:58.517Z,20.50
2022-08-08T22:58:33.069Z,20.48
2022-08-08T23:02:01.607Z,20.46
2022-08-08T23:03:56.325Z,20.46
2022-08-08T23:06:24.488Z,20.44
2022-08-08T23:08:56.014Z,20.44
2022-08-08T23:12:27.769Z,20.43
2022-08-08T23:14:21.169Z,20.41
2022-08-08T23:16:58.000Z,20.41
2022-08-08T23:19:30.620Z,20.40
2022-08-08T23:21:58.725Z,20.41
2022-08-08T23:24:25.253Z,20.38
2022-08-08T23:26:56.080Z,20.35
2022-08-08T23:29:25.339Z,20.33
2022-08-08T23:31:52.206Z,20.31
2022-08-08T23:34:19.891Z,20.27
2022-08-08T23:36:47.756Z,20.25
2022-08-08T23:39:15.536Z,20.23
2022-08-08T23:41:46.878Z,20.19
2022-08-08T23:44:16.916Z,20.16
2022-08-08T23:49:01.796Z,20.14
2022-08-08T23:49:33.909Z,20.12
2022-08-08T23:52:06.351Z,20.09
2022-08-08T23:54:41.207Z,20.08
2022-08-08T23:57:25.367Z,20.07
